Latest Conditions
At L.F.Wade Int. Airport
Recorded at 3:55 am
Overcast
Temp.: 
19°C/66°F
Humidity: 
78%
Wind: 
NW 13KT
or 15mph
Island Observations
Observations
Friday, November 28, 2014

Observations are in local time and taken at least once an hour, or upon the start and end of specified events such as showers and thunderstorms.

Time Sky / Weather Wind Speed/Gusts Temp. R.H. Pressure
     knots (mph)  °C (°F)  %  mb / "Hg
 03:55 Overcast  NW 13/0 (15/0) 19(66) 78 1011 / 29.85
 03:25 Overcast  NW 13/0 (15/0) 19(67) 89 1011 / 29.85
 02:55 Overcast  NW 14/0 (16/0) 19(67) 89 1011 / 29.86
 02:35 Overcast Showers NW 10/0 (12/0) 20(68) 92 1012 / 29.87
 02:21 Overcast Showers NW 10/0 (12/0) 20(68) 92 1012 / 29.88
 01:55 Overcast  NW 5/0 (6/0) 20(68) 92 1012 / 29.88
 01:35 Overcast  NNW 3/0 (3/0) 20(67) 93 1012 / 29.88
 01:12 Overcast  N 3/0 (3/0) 20(67) 93 1012 / 29.88
 00:55 Overcast Showers NNW 6/0 (7/0) 20(67) 93 1012 / 29.89
 00:34 Overcast Showers NNE 4/0 (5/0) 19(67) 96 1012 / 29.89
 23:55 Overcast Showers N 7/0 (8/0) 19(67) 96 1013 / 29.90
 23:29 Overcast Showers N 8/0 (9/0) 20(67) 96 1013 / 29.91
 23:19 Overcast Showers N 9/0 (10/0) 20(67) 96 1013 / 29.91
 23:05 Overcast Showers NNW 13/0 (15/0) 20(67) 96 1013 / 29.92
 22:55 Overcast Showers NNW 12/0 (14/0) 20(67) 96 1013 / 29.91
 22:26 Overcast Showers NNE 6/0 (7/0) 19(66) 97 1013 / 29.92
 22:10 Overcast Showers ENE 9/0 (10/0) 19(66) 97 1013 / 29.91
 21:55 Overcast Thunderstorm N 9/0 (10/0) 19(66) 97 1014 / 29.94
 21:12 Overcast Thunderstorm NW 21/0 (24/0) 20(67) 96 1015 / 29.96
 20:55 Overcast Thunderstorm NW 18/0 (21/0) 20(67) 96 1015 / 29.96
 20:37 Overcast Thunderstorm NNW 14/0 (16/0) 23(74) 90 1014 / 29.94
 20:29 Overcast Thunderstorm WNW 15/0 (17/0) 23(74) 90 1014 / 29.94
 20:15 Overcast Showers SSW 6/0 (7/0) 23(74) 90 1014 / 29.93
 20:05 Overcast Showers SSW 5/0 (6/0) 23(74) 90 1014 / 29.93
Observations from our AWOS sites are available here (password and username are both 'guest').